createdAt,value
2016-10-08T00:01:52.256Z,0
2016-10-08T00:02:33.888Z,0
2016-10-08T00:03:15.581Z,0
2016-10-08T00:03:57.077Z,0
2016-10-08T00:06:12.584Z,0
2016-10-08T00:08:54.343Z,0
2016-10-08T00:09:36.084Z,0
2016-10-08T00:10:17.844Z,0
2016-10-08T00:10:59.528Z,0
2016-10-08T00:11:41.267Z,0
2016-10-08T00:12:23.173Z,0
2016-10-08T00:13:04.891Z,0
2016-10-08T00:13:46.643Z,0
2016-10-08T00:14:28.327Z,0
2016-10-08T00:15:10.184Z,0
2016-10-08T00:17:41.255Z,0
2016-10-08T00:18:23.134Z,0
2016-10-08T00:19:04.833Z,0
2016-10-08T00:21:46.729Z,0
2016-10-08T00:24:28.530Z,0
2016-10-08T00:25:10.225Z,0
2016-10-08T00:25:51.877Z,0
2016-10-08T00:26:33.635Z,0
2016-10-08T00:27:15.335Z,0
2016-10-08T00:27:57.054Z,0
2016-10-08T00:28:38.799Z,0
2016-10-08T00:29:20.473Z,0
2016-10-08T00:30:02.115Z,0
2016-10-08T00:30:43.777Z,0
2016-10-08T00:31:25.470Z,0
2016-10-08T00:32:07.157Z,0
2016-10-08T00:32:48.706Z,0
2016-10-08T00:33:30.448Z,0
2016-10-08T00:34:11.993Z,0
2016-10-08T00:34:53.826Z,0
2016-10-08T00:35:35.662Z,0
2016-10-08T00:36:17.342Z,0
2016-10-08T00:36:59.061Z,0
2016-10-08T00:37:40.773Z,0
2016-10-08T00:38:22.415Z,0
2016-10-08T00:39:04.125Z,0
2016-10-08T00:41:40.603Z,0
2016-10-08T00:42:22.284Z,0
2016-10-08T00:43:04.077Z,0
2016-10-08T00:45:45.752Z,0
2016-10-08T00:46:27.478Z,0
2016-10-08T00:47:09.122Z,0
2016-10-08T00:47:50.928Z,0
2016-10-08T00:48:32.653Z,0
2016-10-08T00:49:14.263Z,0
2016-10-08T00:49:55.904Z,0
2016-10-08T00:50:37.640Z,0
2016-10-08T00:51:19.274Z,0
2016-10-08T00:52:00.984Z,0
2016-10-08T00:52:42.723Z,0
2016-10-08T00:55:13.828Z,0
2016-10-08T00:55:55.479Z,0
2016-10-08T00:56:36.267Z,0
2016-10-08T00:57:16.792Z,0
2016-10-08T00:57:57.330Z,0
2016-10-08T00:58:37.843Z,0
2016-10-08T00:59:18.348Z,0
2016-10-08T00:59:58.859Z,0
2016-10-08T01:00:39.366Z,0
2016-10-08T01:01:19.904Z,0
2016-10-08T01:02:00.439Z,0
2016-10-08T01:02:40.940Z,0
2016-10-08T01:03:21.449Z,0
2016-10-08T01:04:01.945Z,0
2016-10-08T01:04:42.474Z,0
2016-10-08T01:05:22.939Z,0
2016-10-08T01:06:03.437Z,0
2016-10-08T01:06:43.979Z,0
2016-10-08T01:07:24.477Z,0
2016-10-08T01:08:05.001Z,0
2016-10-08T01:08:45.646Z,0
2016-10-08T01:09:26.075Z,0
2016-10-08T01:10:06.619Z,0
2016-10-08T01:10:47.175Z,0
2016-10-08T01:11:27.658Z,0
2016-10-08T01:12:08.195Z,0
2016-10-08T01:12:48.739Z,0
2016-10-08T01:13:29.285Z,0
2016-10-08T01:14:09.847Z,0
2016-10-08T01:14:50.364Z,0
2016-10-08T01:15:30.857Z,0
2016-10-08T01:16:11.363Z,0
2016-10-08T01:16:51.876Z,0
2016-10-08T01:17:32.380Z,0
2016-10-08T01:18:12.896Z,0
2016-10-08T01:18:53.402Z,0
2016-10-08T01:19:33.933Z,0
2016-10-08T01:20:14.486Z,0
2016-10-08T01:20:55.041Z,0
2016-10-08T01:21:35.577Z,0
2016-10-08T01:22:16.099Z,0
2016-10-08T01:22:56.638Z,0
2016-10-08T01:23:37.166Z,0
2016-10-08T01:24:17.710Z,0
2016-10-08T01:24:58.243Z,0
2016-10-08T01:25:38.794Z,0
2016-10-08T01:26:19.301Z,0
2016-10-08T01:26:59.835Z,0
2016-10-08T01:27:40.363Z,0
2016-10-08T01:28:20.863Z,0
2016-10-08T01:29:01.378Z,0
2016-10-08T01:29:41.904Z,0
2016-10-08T01:30:22.443Z,0
2016-10-08T01:31:02.996Z,0
2016-10-08T01:31:43.517Z,0
2016-10-08T01:32:24.047Z,0
2016-10-08T01:33:04.547Z,0
2016-10-08T01:33:45.077Z,0
2016-10-08T01:34:25.599Z,0
2016-10-08T01:35:06.133Z,0
2016-10-08T06:15:19.939Z,10
2016-10-08T06:16:00.286Z,10
2016-10-08T06:16:40.825Z,10
2016-10-08T06:17:21.351Z,10
2016-10-08T06:18:01.856Z,10
2016-10-08T06:18:42.400Z,15
2016-10-08T06:19:22.908Z,15
2016-10-08T06:20:03.406Z,15
2016-10-08T06:20:43.898Z,15
2016-10-08T06:21:24.408Z,15
2016-10-08T06:22:04.902Z,15
2016-10-08T06:22:45.407Z,15
2016-10-08T06:23:26.051Z,15
2016-10-08T06:24:06.565Z,15
2016-10-08T06:24:47.046Z,15
2016-10-08T06:25:27.530Z,20
2016-10-08T06:26:08.045Z,20
2016-10-08T06:26:48.521Z,20
2016-10-08T06:27:29.051Z,25
2016-10-08T06:28:09.590Z,25
2016-10-08T06:28:50.132Z,25
2016-10-08T06:29:30.690Z,25
2016-10-08T06:30:11.447Z,25
2016-10-08T06:30:51.953Z,25
2016-10-08T06:31:32.491Z,25
2016-10-08T06:32:13.031Z,25
2016-10-08T06:32:53.573Z,25
2016-10-08T06:33:34.077Z,30
2016-10-08T06:34:14.559Z,35
2016-10-08T06:34:55.060Z,40
2016-10-08T06:35:35.536Z,40
2016-10-08T06:36:16.023Z,45
2016-10-08T06:36:56.519Z,45
2016-10-08T06:37:37.018Z,45
2016-10-08T06:38:17.501Z,50
2016-10-08T06:38:58.045Z,50
2016-10-08T06:39:38.587Z,50
2016-10-08T06:40:19.105Z,45
2016-10-08T06:40:59.675Z,45
2016-10-08T06:41:40.145Z,50
2016-10-08T06:42:20.623Z,50
2016-10-08T06:43:01.110Z,55
2016-10-08T06:43:41.630Z,55
2016-10-08T06:44:22.175Z,60
2016-10-08T06:45:02.698Z,65
2016-10-08T06:45:43.335Z,70
2016-10-08T06:46:23.794Z,75
2016-10-08T06:47:04.319Z,75
2016-10-08T06:47:44.820Z,80
2016-10-08T06:48:25.297Z,80
2016-10-08T06:49:05.789Z,80
2016-10-08T06:49:46.274Z,85
2016-10-08T06:50:26.756Z,85
2016-10-08T06:51:07.266Z,90
2016-10-08T06:51:47.729Z,90
2016-10-08T06:52:28.294Z,90
2016-10-08T06:53:08.776Z,90
2016-10-08T06:53:49.282Z,90
2016-10-08T06:54:29.744Z,90
2016-10-08T06:55:10.265Z,90
2016-10-08T06:55:50.747Z,85
2016-10-08T06:56:31.322Z,85
2016-10-08T06:57:11.776Z,85
2016-10-08T06:57:52.291Z,85
2016-10-08T06:58:32.773Z,85
2016-10-08T06:59:13.306Z,90
2016-10-08T06:59:53.760Z,90
2016-10-08T07:00:34.255Z,90
2016-10-08T07:01:14.767Z,90
2016-10-08T07:01:55.249Z,90
2016-10-08T07:02:35.737Z,90
2016-10-08T07:03:16.242Z,90
2016-10-08T07:03:56.783Z,90
2016-10-08T07:04:37.329Z,90
2016-10-08T07:05:17.841Z,90
2016-10-08T07:05:58.381Z,90
2016-10-08T07:06:38.870Z,90
2016-10-08T07:07:19.398Z,90
2016-10-08T07:07:59.891Z,90
2016-10-08T07:08:40.398Z,90
2016-10-08T07:09:20.939Z,100
2016-10-08T07:10:01.475Z,105
2016-10-08T07:10:42.063Z,115
2016-10-08T07:11:22.604Z,125
2016-10-08T07:12:03.166Z,125
2016-10-08T07:12:43.705Z,130
2016-10-08T07:13:24.232Z,125
2016-10-08T07:14:04.712Z,120
2016-10-08T07:14:45.220Z,120
2016-10-08T07:15:25.746Z,120
2016-10-08T07:16:06.278Z,125
2016-10-08T07:16:46.789Z,125
2016-10-08T07:17:27.319Z,130
2016-10-08T07:18:07.815Z,135
2016-10-08T07:18:48.316Z,145
2016-10-08T07:19:30.653Z,160
2016-10-08T07:20:11.251Z,170
2016-10-08T07:20:51.803Z,175
2016-10-08T07:21:32.293Z,175
2016-10-08T07:22:12.828Z,175
2016-10-08T07:22:53.363Z,175
2016-10-08T07:23:33.855Z,175
2016-10-08T07:24:14.352Z,170
2016-10-08T07:24:54.862Z,170
2016-10-08T07:25:35.407Z,175
2016-10-08T07:26:15.942Z,180
2016-10-08T07:26:56.481Z,185
2016-10-08T07:27:37.003Z,190
2016-10-08T07:28:17.543Z,195
2016-10-08T07:28:58.098Z,200
2016-10-08T07:29:38.638Z,205
2016-10-08T07:30:19.158Z,220
2016-10-08T07:30:59.661Z,230
2016-10-08T07:31:40.167Z,240
2016-10-08T07:32:20.719Z,245
2016-10-08T07:33:01.264Z,255
2016-10-08T07:33:41.801Z,265
2016-10-08T07:34:22.344Z,275
2016-10-08T07:35:02.885Z,280
2016-10-08T07:35:43.407Z,275
2016-10-08T07:36:23.940Z,280
2016-10-08T07:37:04.485Z,280
2016-10-08T07:37:45.011Z,275
2016-10-08T07:38:25.556Z,255
2016-10-08T07:39:06.080Z,245
2016-10-08T07:39:46.603Z,240
2016-10-08T07:40:27.136Z,245
2016-10-08T07:41:07.666Z,240
2016-10-08T07:41:48.208Z,235
2016-10-08T07:42:28.780Z,230
2016-10-08T07:43:09.312Z,215
2016-10-08T07:43:49.857Z,210
2016-10-08T07:44:30.401Z,205
2016-10-08T07:45:10.945Z,200
2016-10-08T07:45:51.493Z,200
2016-10-08T07:46:31.997Z,200
2016-10-08T07:47:14.057Z,200
2016-10-08T07:47:54.607Z,200
2016-10-08T07:48:35.136Z,200
2016-10-08T07:49:15.656Z,205
2016-10-08T07:49:56.192Z,200
2016-10-08T07:50:36.714Z,200
2016-10-08T07:51:17.251Z,200
2016-10-08T07:51:57.800Z,200
2016-10-08T07:52:38.344Z,200
2016-10-08T07:53:18.842Z,200
2016-10-08T07:53:59.350Z,195
2016-10-08T07:54:39.887Z,190
2016-10-08T07:55:20.429Z,185
2016-10-08T07:56:00.931Z,185
2016-10-08T07:56:41.444Z,180
2016-10-08T07:57:21.963Z,180
2016-10-08T07:58:02.459Z,175
2016-10-08T07:58:42.963Z,170
2016-10-08T07:59:23.494Z,165
2016-10-08T08:00:04.005Z,160
2016-10-08T08:00:44.511Z,160
2016-10-08T08:01:25.019Z,155
2016-10-08T08:02:05.526Z,155
2016-10-08T08:02:45.997Z,155
2016-10-08T08:03:26.507Z,160
2016-10-08T08:04:07.048Z,165
2016-10-08T08:04:47.591Z,170
2016-10-08T08:05:28.133Z,185
2016-10-08T08:06:08.679Z,200
2016-10-08T08:06:49.238Z,205
2016-10-08T08:07:29.765Z,220
2016-10-08T08:08:10.313Z,230
2016-10-08T08:08:50.849Z,255
2016-10-08T08:09:31.376Z,255
2016-10-08T08:10:11.914Z,265
2016-10-08T08:10:52.456Z,275
2016-10-08T08:11:32.975Z,285
2016-10-08T08:12:13.515Z,300
2016-10-08T08:12:54.058Z,325
2016-10-08T08:13:34.566Z,350
2016-10-08T08:14:15.083Z,375
2016-10-08T08:14:55.605Z,365
2016-10-08T08:15:36.142Z,355
2016-10-08T08:16:16.681Z,365
2016-10-08T08:16:57.236Z,355
2016-10-08T08:17:37.756Z,345
2016-10-08T08:18:18.263Z,335
2016-10-08T08:18:58.770Z,325
2016-10-08T08:19:39.300Z,325
2016-10-08T08:20:19.806Z,330
2016-10-08T08:21:00.335Z,295
2016-10-08T08:21:40.852Z,290
2016-10-08T08:22:21.356Z,335
2016-10-08T08:23:01.885Z,395
2016-10-08T08:23:42.440Z,360
2016-10-08T08:24:22.980Z,340
2016-10-08T08:25:03.529Z,345
2016-10-08T08:25:44.072Z,335
2016-10-08T08:26:24.587Z,345
2016-10-08T08:27:05.088Z,345
2016-10-08T08:27:45.647Z,315
2016-10-08T08:28:26.203Z,335
2016-10-08T08:29:06.750Z,400
2016-10-08T08:29:47.299Z,410
2016-10-08T08:30:27.868Z,360
2016-10-08T08:31:08.422Z,300
2016-10-08T08:31:48.969Z,265
2016-10-08T08:32:29.522Z,250
2016-10-08T08:33:10.059Z,250
2016-10-08T08:33:50.606Z,245
2016-10-08T08:34:31.155Z,250
2016-10-08T08:35:11.698Z,260
2016-10-08T08:35:52.240Z,270
2016-10-08T08:36:32.779Z,255
2016-10-08T08:37:13.310Z,245
2016-10-08T08:37:53.851Z,240
2016-10-08T08:38:34.371Z,250
2016-10-08T08:39:14.913Z,265
2016-10-08T08:39:55.450Z,300
2016-10-08T08:40:36.003Z,315
2016-10-08T08:41:16.545Z,285
2016-10-08T08:41:57.082Z,270
2016-10-08T08:42:37.623Z,275
2016-10-08T08:43:18.158Z,315
2016-10-08T08:43:58.693Z,355
2016-10-08T08:44:39.213Z,325
2016-10-08T08:45:19.762Z,405
2016-10-08T08:46:00.299Z,390
2016-10-08T08:46:40.823Z,420
2016-10-08T08:47:21.363Z,605
2016-10-08T08:48:01.902Z,1065
2016-10-08T08:48:42.443Z,1000
2016-10-08T08:49:22.975Z,1045
2016-10-08T08:50:03.518Z,1185
2016-10-08T08:50:44.066Z,1200
2016-10-08T08:51:24.600Z,1645
2016-10-08T08:52:05.191Z,1670
2016-10-08T08:52:45.740Z,1780
2016-10-08T08:53:26.289Z,1870
2016-10-08T08:54:06.841Z,1885
2016-10-08T08:54:47.377Z,1565
2016-10-08T08:55:27.974Z,495
2016-10-08T08:56:08.530Z,1915
2016-10-08T08:56:49.057Z,1935
2016-10-08T08:57:29.591Z,1915
2016-10-08T08:58:10.155Z,1810
2016-10-08T08:58:50.699Z,1780
2016-10-08T08:59:31.202Z,1760
2016-10-08T09:00:11.739Z,1780
2016-10-08T09:00:52.296Z,1795
2016-10-08T09:01:32.839Z,1775
2016-10-08T09:02:13.346Z,1775
2016-10-08T09:02:53.863Z,1770
2016-10-08T09:03:34.382Z,1810
2016-10-08T09:04:14.923Z,1865
2016-10-08T09:04:55.439Z,1895
2016-10-08T09:05:35.975Z,1985
2016-10-08T09:06:16.497Z,2015
2016-10-08T09:06:57.045Z,1930
2016-10-08T09:07:37.571Z,1900
2016-10-08T09:08:18.142Z,1885
2016-10-08T09:08:58.675Z,1930
2016-10-08T09:09:39.194Z,1930
2016-10-08T09:10:19.734Z,1895
2016-10-08T09:11:00.273Z,1915
2016-10-08T09:11:40.807Z,1950
2016-10-08T09:12:21.342Z,1955
2016-10-08T09:13:01.870Z,1985
2016-10-08T09:13:42.409Z,2025
2016-10-08T09:14:22.957Z,2075
2016-10-08T09:15:03.509Z,1975
2016-10-08T09:15:44.066Z,2095
2016-10-08T09:16:24.618Z,2095
2016-10-08T09:17:05.176Z,2115
2016-10-08T09:17:45.717Z,2125
2016-10-08T09:18:26.329Z,2070
2016-10-08T09:19:06.833Z,2005
2016-10-08T09:19:47.384Z,1955
2016-10-08T09:20:27.924Z,1980
2016-10-08T09:21:08.465Z,2040
2016-10-08T09:21:48.984Z,2150
2016-10-08T09:22:29.531Z,2165
2016-10-08T09:23:10.034Z,2220
2016-10-08T09:23:50.566Z,2285
2016-10-08T09:24:31.136Z,2200
2016-10-08T09:25:11.676Z,2355
2016-10-08T09:25:52.213Z,2415
2016-10-08T09:26:32.776Z,2425
2016-10-08T09:27:13.320Z,2345
2016-10-08T09:27:53.912Z,2230
2016-10-08T09:28:34.447Z,2180
2016-10-08T09:29:14.977Z,2485
2016-10-08T09:29:55.530Z,680
2016-10-08T09:30:36.075Z,1355
2016-10-08T09:31:16.651Z,1105
2016-10-08T09:31:57.197Z,845
2016-10-08T09:32:37.749Z,560
2016-10-08T09:33:18.303Z,440
2016-10-08T09:33:58.848Z,395
2016-10-08T09:34:39.391Z,435
2016-10-08T09:35:19.938Z,2555
2016-10-08T09:36:00.494Z,2325
2016-10-08T09:36:41.043Z,1575
2016-10-08T09:37:21.596Z,2600
2016-10-08T09:38:02.181Z,2480
2016-10-08T09:38:42.729Z,390
2016-10-08T09:39:23.280Z,400
2016-10-08T09:40:03.834Z,455
2016-10-08T09:40:44.382Z,460
2016-10-08T09:41:24.933Z,2455
2016-10-08T09:42:05.458Z,2655
2016-10-08T09:42:45.979Z,1045
2016-10-08T09:43:26.525Z,1415
2016-10-08T09:44:07.308Z,550
2016-10-08T09:44:47.843Z,550
2016-10-08T09:45:28.387Z,570
2016-10-08T09:46:08.929Z,580
2016-10-08T09:46:49.467Z,630
2016-10-08T09:47:30.017Z,985
2016-10-08T09:48:10.579Z,940
2016-10-08T09:48:51.128Z,2855
2016-10-08T09:49:31.671Z,2830
2016-10-08T09:50:12.240Z,1600
2016-10-08T09:50:52.800Z,725
2016-10-08T09:51:33.349Z,645
2016-10-08T09:52:13.896Z,690
2016-10-08T09:52:54.438Z,1010
2016-10-08T09:53:34.989Z,2860
2016-10-08T09:54:15.523Z,1295
2016-10-08T09:54:56.074Z,635
2016-10-08T09:55:36.628Z,510
2016-10-08T09:56:17.176Z,510
2016-10-08T09:56:57.727Z,625
2016-10-08T09:57:38.280Z,2470
2016-10-08T09:58:18.829Z,995
2016-10-08T09:58:59.380Z,525
2016-10-08T09:59:40.006Z,775
2016-10-08T10:00:20.535Z,510
2016-10-08T10:01:01.078Z,505
2016-10-08T10:01:41.625Z,495
2016-10-08T10:02:22.164Z,465
2016-10-08T10:03:02.707Z,510
2016-10-08T10:03:43.227Z,585
2016-10-08T10:04:23.761Z,725
2016-10-08T10:05:04.306Z,2950
2016-10-08T10:05:44.835Z,730
2016-10-08T10:06:25.370Z,690
2016-10-08T10:07:05.919Z,2995
2016-10-08T10:07:46.472Z,680
2016-10-08T10:08:27.003Z,620
2016-10-08T10:09:07.537Z,540
2016-10-08T10:09:48.058Z,500
2016-10-08T10:10:28.589Z,475
2016-10-08T10:11:09.121Z,470
2016-10-08T10:11:49.650Z,475
2016-10-08T10:12:30.169Z,465
2016-10-08T10:13:10.715Z,455
2016-10-08T10:13:51.244Z,435
2016-10-08T10:14:31.782Z,440
2016-10-08T10:15:12.340Z,2950
2016-10-08T10:15:52.879Z,405
2016-10-08T10:16:33.425Z,370
2016-10-08T10:17:13.959Z,360
2016-10-08T10:17:54.521Z,355
2016-10-08T10:18:35.034Z,365
2016-10-08T10:19:15.550Z,385
2016-10-08T10:19:56.111Z,2940
2016-10-08T10:20:36.656Z,2030
2016-10-08T10:21:17.191Z,835
2016-10-08T10:21:57.720Z,3060
2016-10-08T10:22:38.263Z,2820
2016-10-08T10:23:18.786Z,785
2016-10-08T10:23:59.316Z,2480
2016-10-08T10:24:39.854Z,1520
2016-10-08T10:25:20.401Z,805
2016-10-08T10:26:00.947Z,790
2016-10-08T10:26:41.496Z,1960
2016-10-08T10:27:22.042Z,1015
2016-10-08T10:28:02.588Z,625
2016-10-08T10:28:43.138Z,545
2016-10-08T10:29:23.700Z,515
2016-10-08T10:30:04.254Z,2430
2016-10-08T10:30:44.804Z,2215
2016-10-08T10:31:25.357Z,3020
2016-10-08T10:32:05.890Z,1005
2016-10-08T10:32:46.434Z,3165
2016-10-08T10:33:26.984Z,2930
2016-10-08T10:34:07.498Z,2680
2016-10-08T10:34:48.036Z,1480
2016-10-08T10:35:28.578Z,1225
2016-10-08T10:36:09.128Z,665
2016-10-08T10:36:49.680Z,715
2016-10-08T10:37:30.242Z,935
2016-10-08T10:38:10.778Z,3105
2016-10-08T10:38:51.308Z,2455
2016-10-08T10:39:31.838Z,1195
2016-10-08T10:40:12.386Z,1040
2016-10-08T10:40:52.930Z,715
2016-10-08T10:41:33.491Z,1970
2016-10-08T10:42:14.036Z,3060
2016-10-08T10:42:54.559Z,3070
2016-10-08T10:43:35.106Z,3085
2016-10-08T10:44:15.650Z,3105
2016-10-08T10:44:56.199Z,3070
2016-10-08T10:45:36.764Z,3020
2016-10-08T10:46:17.305Z,3035
2016-10-08T10:46:57.828Z,3060
2016-10-08T10:47:38.377Z,3065
2016-10-08T10:48:18.932Z,3015
2016-10-08T10:48:59.481Z,3060
2016-10-08T10:49:40.032Z,3035
2016-10-08T10:50:20.582Z,3015
2016-10-08T10:51:01.134Z,2985
2016-10-08T10:51:41.706Z,2955
2016-10-08T10:52:22.246Z,2935
2016-10-08T10:53:02.791Z,2935
2016-10-08T10:53:43.349Z,2885
2016-10-08T10:54:24.021Z,2690
2016-10-08T10:55:04.569Z,2400
2016-10-08T10:55:45.120Z,2025
2016-10-08T10:56:25.646Z,1635
2016-10-08T10:57:06.186Z,1290
2016-10-08T10:57:46.772Z,1015
2016-10-08T10:58:27.293Z,885
2016-10-08T10:59:07.835Z,865
2016-10-08T10:59:48.357Z,885
2016-10-08T11:00:28.883Z,910
2016-10-08T11:01:09.400Z,945
2016-10-08T11:01:49.956Z,995
2016-10-08T11:02:30.502Z,1055
2016-10-08T11:03:11.028Z,1110
2016-10-08T11:03:51.558Z,1140
2016-10-08T11:04:32.123Z,1180
2016-10-08T11:05:12.639Z,1215
2016-10-08T11:05:53.182Z,1260
2016-10-08T11:06:33.741Z,1235
2016-10-08T11:07:14.293Z,1210
2016-10-08T11:07:54.832Z,1205
2016-10-08T11:08:35.508Z,1265
2016-10-08T11:09:16.050Z,1180
2016-10-08T11:09:56.589Z,1115
2016-10-08T11:10:37.130Z,745
2016-10-08T11:11:17.672Z,695
2016-10-08T11:11:58.198Z,760
2016-10-08T11:12:38.751Z,660
2016-10-08T11:13:19.273Z,615
2016-10-08T11:13:59.835Z,570
2016-10-08T11:14:40.373Z,760
2016-10-08T11:15:20.925Z,490
2016-10-08T11:16:01.488Z,440
2016-10-08T11:16:42.039Z,420
2016-10-08T11:17:22.594Z,390
2016-10-08T11:18:03.120Z,370
2016-10-08T11:18:43.641Z,345
2016-10-08T11:19:24.157Z,315
2016-10-08T11:20:04.721Z,290
2016-10-08T11:20:45.313Z,270
2016-10-08T11:21:25.845Z,255
2016-10-08T11:22:06.360Z,240
2016-10-08T11:22:46.895Z,235
2016-10-08T11:23:27.593Z,225
2016-10-08T11:24:08.115Z,215
2016-10-08T11:24:48.642Z,200
2016-10-08T11:25:29.165Z,190
2016-10-08T11:26:09.717Z,180
2016-10-08T11:26:50.266Z,170
2016-10-08T11:27:30.820Z,160
2016-10-08T11:28:11.356Z,155
2016-10-08T11:28:51.865Z,150
2016-10-08T11:29:32.383Z,150
2016-10-08T11:30:12.923Z,150
2016-10-08T11:30:53.472Z,145
2016-10-08T11:31:34.014Z,145
2016-10-08T11:32:14.560Z,140
2016-10-08T11:32:55.107Z,145
2016-10-08T11:33:35.657Z,145
2016-10-08T11:34:16.205Z,150
2016-10-08T11:34:56.756Z,160
2016-10-08T11:35:37.307Z,170
2016-10-08T11:36:17.837Z,175
2016-10-08T11:36:58.372Z,180
2016-10-08T11:37:38.919Z,190
2016-10-08T11:38:19.456Z,190
2016-10-08T11:38:59.973Z,195
2016-10-08T11:39:40.504Z,200
2016-10-08T11:40:21.022Z,210
2016-10-08T11:41:01.561Z,220
2016-10-08T11:41:42.080Z,230
2016-10-08T11:42:22.589Z,245
2016-10-08T11:43:03.130Z,260
2016-10-08T11:43:43.658Z,285
2016-10-08T11:44:24.159Z,300
2016-10-08T11:45:04.714Z,320
2016-10-08T11:45:45.254Z,340
2016-10-08T11:46:25.796Z,355
2016-10-08T11:47:06.338Z,360
2016-10-08T11:47:46.860Z,375
2016-10-08T11:48:27.395Z,375
2016-10-08T11:49:07.941Z,375
2016-10-08T11:49:48.475Z,365
2016-10-08T11:50:29.007Z,365
2016-10-08T11:51:09.577Z,370
2016-10-08T11:51:50.108Z,365
2016-10-08T11:52:30.652Z,370
2016-10-08T11:53:11.180Z,370
2016-10-08T11:53:51.713Z,375
2016-10-08T11:54:32.226Z,390
2016-10-08T11:55:12.755Z,415
2016-10-08T11:55:53.290Z,455
2016-10-08T11:56:33.844Z,505
2016-10-08T11:57:14.389Z,585
2016-10-08T11:57:54.930Z,1440
2016-10-08T11:58:35.445Z,615
2016-10-08T11:59:15.973Z,560
2016-10-08T11:59:56.490Z,535
2016-10-08T12:00:37.026Z,530
2016-10-08T12:01:17.524Z,560
2016-10-08T12:01:58.027Z,560
2016-10-08T12:02:38.584Z,570
2016-10-08T12:03:19.127Z,575
2016-10-08T12:03:59.685Z,580
2016-10-08T12:04:40.217Z,565
2016-10-08T12:05:20.768Z,560
2016-10-08T12:06:01.319Z,545
2016-10-08T12:06:41.850Z,545
2016-10-08T12:07:22.385Z,525
2016-10-08T12:08:02.929Z,500
2016-10-08T12:08:43.471Z,445
2016-10-08T12:09:24.019Z,385
2016-10-08T12:10:04.564Z,340
2016-10-08T12:10:45.131Z,305
2016-10-08T12:11:25.661Z,280
2016-10-08T12:12:06.179Z,250
2016-10-08T12:12:46.690Z,220
2016-10-08T12:13:27.242Z,195
2016-10-08T12:14:07.789Z,180
2016-10-08T12:14:48.338Z,170
2016-10-08T12:15:28.895Z,170
2016-10-08T12:16:09.424Z,170
2016-10-08T12:16:49.961Z,175
2016-10-08T12:17:30.506Z,185
2016-10-08T12:18:11.049Z,195
2016-10-08T12:18:51.576Z,200
2016-10-08T12:19:32.146Z,210
2016-10-08T12:20:12.679Z,225
2016-10-08T12:20:53.210Z,235
2016-10-08T12:21:33.754Z,250
2016-10-08T12:22:14.260Z,265
2016-10-08T12:22:54.793Z,270
2016-10-08T12:23:35.303Z,295
2016-10-08T12:24:15.842Z,320
2016-10-08T12:24:56.391Z,335
2016-10-08T12:25:36.932Z,355
2016-10-08T12:26:17.462Z,370
2016-10-08T12:26:58.012Z,385
2016-10-08T12:27:38.573Z,400
2016-10-08T12:28:19.127Z,420
2016-10-08T12:28:59.685Z,435
2016-10-08T12:29:40.248Z,445
2016-10-08T12:30:20.801Z,455
2016-10-08T12:31:01.337Z,465
2016-10-08T12:31:41.874Z,485
2016-10-08T12:32:22.420Z,500
2016-10-08T12:33:02.987Z,515
2016-10-08T12:33:43.535Z,535
2016-10-08T12:34:24.066Z,555
2016-10-08T12:35:04.608Z,565
2016-10-08T12:35:45.153Z,575
2016-10-08T12:36:25.729Z,580
2016-10-08T12:37:06.256Z,605
2016-10-08T12:37:46.795Z,625
2016-10-08T12:38:27.326Z,625
2016-10-08T12:39:07.870Z,640
2016-10-08T12:39:48.417Z,660
2016-10-08T12:40:28.950Z,680
2016-10-08T12:41:09.503Z,675
2016-10-08T12:41:50.027Z,660
2016-10-08T12:42:30.569Z,645
2016-10-08T12:43:11.075Z,625
2016-10-08T12:43:51.599Z,610
2016-10-08T12:44:32.145Z,595
2016-10-08T12:45:12.695Z,580
2016-10-08T12:45:53.236Z,580
2016-10-08T12:46:33.778Z,585
2016-10-08T12:47:14.332Z,590
2016-10-08T12:47:54.845Z,575
2016-10-08T12:48:35.379Z,570
2016-10-08T12:49:15.879Z,580
2016-10-08T12:49:56.425Z,585
2016-10-08T12:50:36.898Z,595
2016-10-08T12:51:17.435Z,600
2016-10-08T12:51:57.943Z,605
2016-10-08T12:52:38.472Z,610
2016-10-08T12:53:19.019Z,615
2016-10-08T12:53:59.558Z,610
2016-10-08T12:54:40.111Z,600
2016-10-08T12:55:20.673Z,610
2016-10-08T12:56:01.223Z,620
2016-10-08T12:56:41.767Z,625
2016-10-08T12:57:22.323Z,625
2016-10-08T12:58:02.856Z,615
2016-10-08T12:58:43.399Z,640
2016-10-08T12:59:23.938Z,700
2016-10-08T13:00:04.482Z,685
2016-10-08T13:00:45.044Z,610
2016-10-08T13:01:25.569Z,585
2016-10-08T13:02:06.120Z,590
2016-10-08T13:02:46.677Z,600
2016-10-08T13:03:27.217Z,585
2016-10-08T13:04:07.768Z,585
2016-10-08T13:04:48.301Z,575
2016-10-08T13:05:28.833Z,565
2016-10-08T13:06:09.364Z,545
2016-10-08T13:06:49.915Z,520
2016-10-08T13:07:30.462Z,515
2016-10-08T13:08:11.005Z,510
2016-10-08T13:08:51.547Z,515
2016-10-08T13:09:32.093Z,520
2016-10-08T13:10:12.628Z,530
2016-10-08T13:10:53.176Z,525
2016-10-08T13:11:33.729Z,530
2016-10-08T13:12:14.236Z,525
2016-10-08T13:12:54.750Z,505
2016-10-08T13:13:35.299Z,470
2016-10-08T13:14:15.852Z,455
2016-10-08T13:14:56.410Z,435
2016-10-08T13:15:36.956Z,420
2016-10-08T13:16:17.507Z,420
2016-10-08T13:19:12.350Z,470
2016-10-08T13:19:52.877Z,475
2016-10-08T13:20:33.416Z,455
2016-10-08T13:21:13.954Z,435
2016-10-08T13:21:54.493Z,425
2016-10-08T13:22:35.032Z,415
2016-10-08T13:23:15.568Z,415
2016-10-08T13:23:56.088Z,425
2016-10-08T13:24:36.627Z,440
2016-10-08T13:25:17.167Z,460
2016-10-08T13:25:57.731Z,510
2016-10-08T13:26:38.276Z,580
2016-10-08T13:27:18.821Z,600
2016-10-08T13:27:59.360Z,590
2016-10-08T13:28:39.886Z,605
2016-10-08T13:29:20.418Z,760
2016-10-08T13:30:00.981Z,855
2016-10-08T13:30:41.489Z,775
2016-10-08T13:31:22.032Z,695
2016-10-08T13:32:02.566Z,1250
2016-10-08T13:32:43.107Z,745
2016-10-08T13:33:23.596Z,740
2016-10-08T13:34:04.104Z,915
2016-10-08T13:34:44.596Z,730
2016-10-08T13:35:25.111Z,435
2016-10-08T13:36:05.672Z,335
2016-10-08T13:36:46.187Z,285
2016-10-08T13:37:26.730Z,270
2016-10-08T13:38:07.250Z,255
2016-10-08T13:38:47.818Z,245
2016-10-08T13:39:28.319Z,240
2016-10-08T13:40:08.892Z,255
2016-10-08T13:40:49.412Z,260
2016-10-08T13:41:29.933Z,235
2016-10-08T13:42:10.460Z,225
2016-10-08T13:42:50.993Z,215
2016-10-08T13:43:31.659Z,210
2016-10-08T13:44:12.177Z,205
2016-10-08T13:44:52.722Z,200
2016-10-08T13:45:33.250Z,195
2016-10-08T13:46:13.778Z,185
2016-10-08T13:46:54.314Z,180
2016-10-08T13:47:34.852Z,185
2016-10-08T13:48:15.384Z,180
2016-10-08T13:48:55.941Z,180
2016-10-08T13:49:36.476Z,185
2016-10-08T13:50:17.027Z,185
2016-10-08T13:50:57.566Z,185
2016-10-08T13:51:38.101Z,185
2016-10-08T13:52:18.670Z,185
2016-10-08T13:52:59.292Z,190
2016-10-08T13:53:39.830Z,190
2016-10-08T13:54:20.333Z,195
2016-10-08T13:55:00.868Z,200
2016-10-08T13:55:41.376Z,210
2016-10-08T13:56:22.126Z,215
2016-10-08T13:57:02.640Z,220
2016-10-08T13:57:43.196Z,230
2016-10-08T13:58:23.668Z,235
2016-10-08T13:59:04.185Z,235
2016-10-08T13:59:44.717Z,240
2016-10-08T14:00:25.234Z,245
2016-10-08T14:01:05.751Z,255
2016-10-08T14:01:46.309Z,265
2016-10-08T14:02:26.870Z,265
2016-10-08T14:03:07.412Z,265
2016-10-08T14:03:47.971Z,260
2016-10-08T14:04:28.527Z,260
2016-10-08T14:05:09.072Z,255
2016-10-08T14:05:49.612Z,255
2016-10-08T14:06:30.145Z,255
2016-10-08T14:07:10.736Z,250
2016-10-08T14:07:51.302Z,255
2016-10-08T14:08:31.830Z,255
2016-10-08T14:09:12.360Z,260
2016-10-08T14:09:52.908Z,255
2016-10-08T14:10:33.460Z,260
2016-10-08T14:11:14.000Z,255
2016-10-08T14:11:54.544Z,255
2016-10-08T14:12:35.088Z,255
2016-10-08T14:13:15.677Z,265
2016-10-08T14:13:56.238Z,265
2016-10-08T14:14:36.780Z,260
2016-10-08T14:15:17.323Z,260
2016-10-08T14:15:57.889Z,265
2016-10-08T14:16:38.424Z,275
2016-10-08T14:17:18.993Z,275
2016-10-08T14:17:59.537Z,270
2016-10-08T14:18:40.081Z,265
2016-10-08T14:19:20.616Z,260
2016-10-08T14:20:01.118Z,250
2016-10-08T14:20:41.609Z,240
2016-10-08T14:21:22.148Z,235